Time;durP1;ratioP1;P1;durP2;ratioP2;P2;SDS_P1;SDS_P2;PMS_P1;PMS_P2;Temp;Humidity;BMP_temperature;BMP_pressure;BME280_temperature;BME280_humidity;BME280_pressure;Samples;Min_cycle;Max_cycle;Signal;HPM_P1;HPM_P2
2021/10/27 00:01:34;;;;;;;5.55;5.00;;;;;;;8.69;83.55;99634.63;5047119;27;103856;-61
2021/10/27 00:04:03;;;;;;;6.03;5.43;;;;;;;8.43;83.95;99640.31;5046465;27;103873;-61
2021/10/27 00:06:31;;;;;;;5.50;5.00;;;;;;;8.01;87.68;99639.72;5017180;27;103678;-61
2021/10/27 00:08:59;;;;;;;4.60;4.20;;;;;;;8.45;86.41;99641.09;5027561;27;103069;-61
2021/10/27 00:11:29;;;;;;;4.47;4.07;;;;;;;8.76;85.07;99635.16;5021649;27;102816;-61
2021/10/27 00:13:57;;;;;;;4.03;3.72;;;;;;;8.94;84.08;99634.22;5030924;27;102853;-62
2021/10/27 00:16:26;;;;;;;4.28;3.88;;;;;;;9.07;83.83;99639.72;5042667;27;103263;-61
2021/10/27 00:18:54;;;;;;;4.25;3.85;;;;;;;8.96;81.97;99636.78;5041903;27;104231;-61
2021/10/27 00:21:22;;;;;;;4.80;4.30;;;;;;;8.45;85.61;99630.56;5024849;27;102969;-61
2021/10/27 00:23:53;;;;;;;4.70;4.30;;;;;;;7.99;89.08;99628.41;5030924;27;103148;-62
2021/10/27 00:26:21;;;;;;;4.35;3.95;;;;;;;8.44;85.98;99622.75;5048047;27;103375;-62
2021/10/27 00:28:51;;;;;;;3.75;3.40;;;;;;;8.70;84.93;99625.78;5015352;27;104253;-61
2021/10/27 00:31:20;;;;;;;3.85;3.35;;;;;;;8.84;84.03;99630.38;5048479;27;103262;-61
2021/10/27 00:33:48;;;;;;;3.97;3.58;;;;;;;8.73;83.31;99625.63;5026125;27;103025;-62
2021/10/27 00:36:16;;;;;;;5.18;3.30;;;;;;;8.56;83.30;99622.97;5046754;27;103023;-61
2021/10/27 00:38:44;;;;;;;3.50;3.20;;;;;;;8.73;84.19;99624.75;5048828;27;103152;-61
2021/10/27 00:41:15;;;;;;;3.80;3.35;;;;;;;8.69;83.67;99629.34;5048257;27;103106;-61
2021/10/27 00:43:43;;;;;;;3.60;3.30;;;;;;;8.58;83.75;99626.41;5019962;27;103070;-61
2021/10/27 00:46:21;;;;;;;3.55;3.25;;;;;;;8.71;83.66;99627.50;5022919;27;103946;-61
2021/10/27 00:48:50;;;;;;;4.87;3.90;;;;;;;8.49;83.87;99620.72;5037941;27;103197;-61
2021/10/27 00:51:19;;;;;;;3.35;3.10;;;;;;;8.45;85.00;99614.75;5043970;27;102904;-61
2021/10/27 00:53:48;;;;;;;3.60;3.30;;;;;;;8.47;84.62;99623.44;5018277;27;104212;-61
2021/10/27 00:56:18;;;;;;;4.03;3.50;;;;;;;8.09;86.19;99624.41;5047728;27;103044;-62
2021/10/27 00:58:46;;;;;;;5.00;4.05;;;;;;;8.07;86.47;99629.75;5039670;27;103907;-61
2021/10/27 01:01:14;;;;;;;6.20;4.85;;;;;;;7.22;91.43;99627.56;5050459;27;102916;-61
2021/10/27 01:03:44;;;;;;;6.13;5.53;;;;;;;7.25;93.50;99632.69;5039883;27;104111;-61
2021/10/27 01:06:12;;;;;;;7.50;6.70;;;;;;;7.11;95.13;99635.06;5042447;27;103220;-61
2021/10/27 01:08:40;;;;;;;5.03;4.53;;;;;;;7.96;93.09;99628.53;5044266;27;103203;-61
2021/10/27 01:11:09;;;;;;;5.15;4.65;;;;;;;8.36;90.91;99630.16;5026844;27;102706;-61
2021/10/27 01:13:37;;;;;;;5.75;5.15;;;;;;;8.65;90.07;99625.16;5041001;27;102809;-61
2021/10/27 01:16:06;;;;;;;8.80;6.50;;;;;;;8.84;89.83;99626.88;5042618;27;103461;-61
2021/10/27 01:18:36;;;;;;;6.82;6.13;;;;;;;8.97;89.73;99627.94;5044290;27;103130;-61
2021/10/27 01:21:05;;;;;;;10.82;6.80;;;;;;;9.08;89.91;99630.88;5038003;27;102986;-61
2021/10/27 01:23:34;;;;;;;30.30;7.53;;;;;;;9.08;88.91;99630.88;5024461;27;104667;-62
2021/10/27 01:26:05;;;;;;;53.60;9.75;;;;;;;9.11;89.35;99628.09;5029125;27;103223;-61
2021/10/27 01:28:39;;;;;;;6.20;5.70;;;;;;;9.23;89.44;99635.38;5044677;27;103245;-61
2021/10/27 01:31:09;;;;;;;5.93;5.47;;;;;;;9.31;88.52;99633.19;5042408;27;102952;-62
2021/10/27 01:33:38;;;;;;;6.40;5.80;;;;;;;9.40;87.66;99631.84;5045603;27;104149;-61
2021/10/27 01:36:07;;;;;;;6.57;5.97;;;;;;;9.48;87.72;99632.28;5042675;27;103011;-62
2021/10/27 01:38:37;;;;;;;81.47;10.20;;;;;;;9.43;87.52;99627.25;5046895;27;102964;-62
2021/10/27 01:41:06;;;;;;;14.83;6.53;;;;;;;9.45;87.96;99627.19;5042512;27;103363;-61
2021/10/27 01:43:48;;;;;;;30.23;7.75;;;;;;;9.40;88.13;99631.84;5034509;27;103049;-61
2021/10/27 01:46:26;;;;;;;12.55;7.43;;;;;;;9.48;89.81;99634.94;5047637;27;104064;-62
2021/10/27 01:48:54;;;;;;;24.97;8.30;;;;;;;9.55;88.50;99637.16;5028331;27;103225;-61
2021/10/27 01:51:24;;;;;;;7.13;6.43;;;;;;;9.67;88.74;99630.38;5031824;27;102992;-62
2021/10/27 01:53:52;;;;;;;7.03;6.43;;;;;;;9.74;88.33;99626.47;5041092;27;103897;-61
2021/10/27 01:56:20;;;;;;;29.73;8.65;;;;;;;9.72;88.00;99625.69;5042537;27;103287;-62
2021/10/27 01:58:49;;;;;;;126.85;12.90;;;;;;;9.52;88.44;99624.13;5036208;27;103235;-61
2021/10/27 02:01:17;;;;;;;13.00;6.40;;;;;;;9.70;89.06;99624.94;5044089;27;102660;-61
2021/10/27 02:03:47;;;;;;;9.38;7.00;;;;;;;9.78;88.90;99623.59;5034594;27;104322;-62
2021/10/27 02:06:15;;;;;;;6.45;5.88;;;;;;;9.82;88.71;99624.28;5043814;27;103257;-61
2021/10/27 02:08:45;;;;;;;6.17;5.67;;;;;;;9.86;88.45;99626.66;5044362;27;103199;-62
2021/10/27 02:11:13;;;;;;;6.85;6.32;;;;;;;9.81;88.96;99623.41;5045199;27;102739;-61
2021/10/27 02:13:54;;;;;;;12.38;7.30;;;;;;;9.87;88.75;99623.09;5039917;27;104178;-61
2021/10/27 02:16:25;;;;;;;7.73;6.47;;;;;;;9.94;88.22;99620.13;5029390;27;103351;-61
2021/10/27 02:18:56;;;;;;;19.77;7.50;;;;;;;9.83;88.24;99633.88;5042452;27;104203;-61
2021/10/27 02:21:24;;;;;;;6.75;6.10;;;;;;;9.92;87.97;99628.09;5042008;27;102792;-62
2021/10/27 02:23:54;;;;;;;7.35;5.88;;;;;;;9.95;87.74;99625.28;5042241;27;104029;-61
2021/10/27 02:26:24;;;;;;;8.35;5.80;;;;;;;9.95;87.68;99621.78;5044637;27;104021;-62
2021/10/27 02:28:53;;;;;;;7.68;5.97;;;;;;;9.87;87.86;99625.72;5040809;27;104148;-61
2021/10/27 02:31:22;;;;;;;107.95;9.93;;;;;;;9.72;87.42;99629.19;5043727;27;102723;-62
2021/10/27 02:33:52;;;;;;;40.00;7.20;;;;;;;9.51;88.85;99635.63;5043931;27;104215;-61
2021/10/27 02:36:20;;;;;;;9.67;5.03;;;;;;;9.71;88.05;99626.66;5044418;27;103441;-61
2021/10/27 02:38:49;;;;;;;8.50;5.78;;;;;;;9.78;87.89;99625.38;5042194;27;103211;-61
2021/10/27 02:41:19;;;;;;;5.80;5.30;;;;;;;9.78;87.03;99631.50;5023903;27;102782;-61
2021/10/27 02:43:47;;;;;;;15.32;6.13;;;;;;;9.73;86.78;99636.19;5038685;27;104005;-61
2021/10/27 02:46:15;;;;;;;20.30;6.68;;;;;;;9.70;86.88;99646.03;5040494;27;103549;-61
2021/10/27 02:48:43;;;;;;;80.85;8.90;;;;;;;9.52;87.04;99639.09;5045678;27;103175;-62
2021/10/27 02:51:12;;;;;;;86.07;10.13;;;;;;;9.34;88.25;99638.31;5038686;27;102944;-61
2021/10/27 02:53:40;;;;;;;89.13;9.73;;;;;;;9.39;88.41;99641.53;5041778;27;102900;-62
2021/10/27 02:56:09;;;;;;;14.23;6.00;;;;;;;9.67;88.57;99640.94;5042522;27;103112;-62
2021/10/27 02:58:38;;;;;;;5.37;4.87;;;;;;;9.77;87.26;99642.97;5043873;27;103252;-61
2021/10/27 03:01:07;;;;;;;9.80;5.78;;;;;;;9.83;87.16;99644.44;5042410;27;102961;-61
2021/10/27 03:03:35;;;;;;;7.63;6.03;;;;;;;9.83;86.62;99637.38;5042458;27;103151;-61
2021/10/27 03:06:04;;;;;;;26.85;7.18;;;;;;;9.81;85.62;99652.44;5004837;27;103208;-61
2021/10/27 03:08:32;;;;;;;11.05;6.05;;;;;;;9.77;86.74;99636.84;5035746;27;103162;-62
2021/10/27 03:11:00;;;;;;;5.80;5.20;;;;;;;9.82;86.91;99640.09;5042522;27;102894;-61
2021/10/27 03:13:28;;;;;;;7.27;5.87;;;;;;;9.87;86.71;99646.84;5045953;27;103145;-61
2021/10/27 03:15:57;;;;;;;29.00;8.55;;;;;;;9.75;85.89;99644.00;5034195;27;102982;-61
2021/10/27 03:18:30;;;;;;;8.00;6.75;;;;;;;9.80;86.44;99647.25;5048089;27;103980;-62
2021/10/27 03:20:58;;;;;;;78.30;11.18;;;;;;;9.39;88.28;99635.41;5043320;27;102916;-62
2021/10/27 03:23:27;;;;;;;17.20;10.32;;;;;;;9.26;90.53;99635.22;5027846;27;103735;-61
2021/10/27 03:25:55;;;;;;;11.07;9.55;;;;;;;9.41;90.10;99633.53;5044700;27;104150;-61
2021/10/27 03:28:24;;;;;;;8.40;7.60;;;;;;;9.69;88.94;99645.19;5044096;27;103170;-61
2021/10/27 03:30:52;;;;;;;10.32;8.65;;;;;;;9.70;87.84;99643.41;5043113;27;102672;-61
2021/10/27 03:33:22;;;;;;;7.57;6.97;;;;;;;9.79;87.52;99641.13;5026617;27;103071;-62
2021/10/27 03:35:50;;;;;;;13.35;9.82;;;;;;;9.73;87.37;99646.75;5045281;27;103529;-61
2021/10/27 03:38:19;;;;;;;9.10;8.32;;;;;;;9.73;87.74;99644.09;5040087;27;103212;-61
2021/10/27 03:40:47;;;;;;;7.85;7.25;;;;;;;9.79;87.04;99638.50;5028337;27;102710;-61
2021/10/27 03:43:18;;;;;;;7.90;7.30;;;;;;;9.88;86.33;99637.97;5028674;27;103307;-61
2021/10/27 03:45:47;;;;;;;8.07;7.38;;;;;;;9.91;85.68;99645.72;5042232;27;104406;-61
2021/10/27 03:48:16;;;;;;;8.05;7.35;;;;;;;9.92;85.34;99643.94;5030111;27;103703;-61
2021/10/27 03:50:59;;;;;;;8.52;7.72;;;;;;;9.91;84.57;99645.72;5048388;27;102729;-60
2021/10/27 03:53:30;;;;;;;69.78;11.30;;;;;;;9.48;84.77;99646.34;5043853;27;103942;-60
2021/10/27 03:55:58;;;;;;;7.65;6.95;;;;;;;9.45;86.57;99646.50;5042762;27;103727;-59
2021/10/27 03:58:26;;;;;;;6.97;6.28;;;;;;;9.65;85.83;99643.66;5011854;27;103243;-60
2021/10/27 04:00:54;;;;;;;6.47;5.97;;;;;;;9.74;85.02;99650.22;5040583;27;102710;-60
2021/10/27 04:03:23;;;;;;;6.60;6.00;;;;;;;9.73;84.46;99654.66;5043107;27;103097;-60
2021/10/27 04:05:53;;;;;;;17.17;8.50;;;;;;;9.30;85.16;99639.38;5041801;27;103147;-60
2021/10/27 04:08:22;;;;;;;26.48;10.82;;;;;;;8.62;86.92;99648.16;5044358;27;104265;-60
2021/10/27 04:10:50;;;;;;;10.27;8.50;;;;;;;8.88;87.43;99654.75;5045150;27;102915;-59
2021/10/27 04:13:20;;;;;;;12.10;9.40;;;;;;;8.66;88.16;99652.34;5041464;27;104302;-60
2021/10/27 04:15:48;;;;;;;8.93;8.07;;;;;;;8.73;87.60;99654.59;5047512;27;103239;-60
2021/10/27 04:18:17;;;;;;;9.17;8.37;;;;;;;8.73;88.50;99657.25;5026665;27;104461;-60
2021/10/27 04:20:45;;;;;;;8.10;7.40;;;;;;;9.05;87.49;99660.91;5044887;27;102683;-60
2021/10/27 04:23:15;;;;;;;8.40;7.63;;;;;;;9.03;86.51;99667.19;5031527;27;103138;-62
2021/10/27 04:25:43;;;;;;;9.90;9.00;;;;;;;8.77;87.60;99657.94;5035690;27;104373;-61
2021/10/27 04:28:11;;;;;;;9.60;8.70;;;;;;;8.74;88.51;99661.59;5042143;27;103202;-61
2021/10/27 04:30:39;;;;;;;10.30;9.40;;;;;;;8.68;88.98;99669.78;5032531;27;102647;-61
2021/10/27 04:33:16;;;;;;;11.23;10.05;;;;;;;8.49;90.28;99666.34;5039230;27;102694;-61
2021/10/27 04:35:45;;;;;;;9.27;8.38;;;;;;;8.83;90.31;99662.06;5042497;27;103572;-61
2021/10/27 04:38:16;;;;;;;9.57;8.73;;;;;;;9.02;88.17;99668.97;5048164;27;103191;-61
2021/10/27 04:40:44;;;;;;;10.43;9.32;;;;;;;8.80;89.60;99667.47;5033337;27;102762;-61
2021/10/27 04:43:13;;;;;;;8.07;7.37;;;;;;;9.06;89.05;99665.25;5035887;27;103918;-61
2021/10/27 04:45:41;;;;;;;12.25;10.65;;;;;;;8.71;89.37;99663.50;5026209;27;104354;-61
2021/10/27 04:48:10;;;;;;;11.57;10.40;;;;;;;8.58;90.86;99667.69;5027497;27;103178;-61
2021/10/27 04:50:38;;;;;;;13.25;10.82;;;;;;;8.50;91.64;99675.97;5034115;27;103090;-61
2021/10/27 04:53:13;;;;;;;12.50;11.30;;;;;;;8.31;92.91;99669.03;5042302;27;104007;-61
2021/10/27 04:55:42;;;;;;;11.80;10.80;;;;;;;8.50;91.22;99657.53;5045172;27;103331;-61
2021/10/27 04:58:10;;;;;;;9.07;8.27;;;;;;;8.71;91.21;99669.66;5021715;27;103202;-61
2021/10/27 05:00:38;;;;;;;9.98;9.07;;;;;;;8.72;89.42;99659.97;5044251;27;102752;-61
2021/10/27 05:03:06;;;;;;;8.85;8.15;;;;;;;8.87;89.93;99658.34;5038750;27;102899;-61
2021/10/27 05:05:42;;;;;;;8.68;7.97;;;;;;;8.96;88.79;99652.59;5021983;27;103332;-61
2021/10/27 05:08:10;;;;;;;8.65;7.85;;;;;;;9.02;88.18;99653.16;5042541;27;103195;-61
2021/10/27 05:10:42;;;;;;;7.30;6.67;;;;;;;9.23;87.61;99661.75;5023972;27;103046;-62
2021/10/27 05:13:10;;;;;;;8.38;7.68;;;;;;;9.20;86.68;99661.91;5028100;27;103154;-62
2021/10/27 05:15:38;;;;;;;9.70;8.70;;;;;;;8.97;86.57;99654.31;5034031;27;104745;-62
2021/10/27 05:18:06;;;;;;;9.45;8.55;;;;;;;8.61;89.48;99651.75;5038492;27;103652;-62
2021/10/27 05:20:35;;;;;;;11.43;9.43;;;;;;;8.37;91.38;99659.03;5046054;27;102988;-61
2021/10/27 05:23:03;;;;;;;9.67;8.60;;;;;;;8.64;89.74;99656.84;5038778;27;103340;-61
2021/10/27 05:25:32;;;;;;;9.65;8.85;;;;;;;8.50;90.73;99665.44;5039021;27;103205;-61
2021/10/27 05:28:01;;;;;;;10.93;9.73;;;;;;;8.25;92.27;99658.75;5021461;27;103170;-61
2021/10/27 05:30:30;;;;;;;8.75;7.97;;;;;;;8.47;92.23;99655.06;5043311;27;102672;-61
2021/10/27 05:33:00;;;;;;;10.15;9.35;;;;;;;8.12;92.96;99653.22;5049554;27;103032;-61
2021/10/27 05:35:34;;;;;;;10.43;9.53;;;;;;;8.37;91.91;99655.56;5049272;27;102544;-62
2021/10/27 05:38:04;;;;;;;10.80;9.80;;;;;;;8.49;90.71;99662.88;5047837;27;103199;-61
2021/10/27 05:40:32;;;;;;;10.85;9.93;;;;;;;8.17;92.24;99661.72;5011054;27;103075;-62
2021/10/27 05:43:07;;;;;;;10.80;9.70;;;;;;;8.29;91.37;99661.19;5019443;27;103898;-61
2021/10/27 05:45:35;;;;;;;9.75;8.82;;;;;;;8.53;90.60;99654.72;5017233;27;103209;-61
2021/10/27 05:48:04;;;;;;;9.20;8.40;;;;;;;8.65;89.19;99664.66;5014802;27;103197;-61
2021/10/27 05:50:37;;;;;;;11.48;10.48;;;;;;;8.33;90.16;99662.75;5013531;27;103234;-61
2021/10/27 05:55:51;;;;;;;9.60;8.80;;;;;;;8.60;90.17;99669.31;5025063;27;103884;-61
2021/10/27 05:58:20;;;;;;;10.10;9.15;;;;;;;8.38;90.20;99671.28;5022406;27;104285;-61
2021/10/27 06:00:48;;;;;;;11.00;10.00;;;;;;;8.04;93.00;99671.16;5020828;27;102750;-61
2021/10/27 06:03:17;;;;;;;10.55;9.55;;;;;;;8.34;91.58;99672.34;5021203;27;103068;-61
2021/10/27 06:05:45;;;;;;;10.55;9.65;;;;;;;8.50;90.21;99677.75;5029784;27;103186;-62
2021/10/27 06:08:16;;;;;;;11.68;10.48;;;;;;;8.15;91.33;99668.88;5028421;27;103281;-61
2021/10/27 06:10:46;;;;;;;10.90;9.85;;;;;;;8.31;90.74;99672.50;5019902;27;102572;-61
2021/10/27 06:13:16;;;;;;;11.20;10.02;;;;;;;8.13;91.94;99675.97;5021700;27;103712;-61
2021/10/27 06:15:45;;;;;;;9.53;8.63;;;;;;;8.40;91.04;99668.56;5021597;27;103172;-62
2021/10/27 06:18:13;;;;;;;11.30;10.23;;;;;;;8.03;91.54;99669.44;5028249;27;103197;-61
2021/10/27 06:20:41;;;;;;;10.23;9.15;;;;;;;8.47;90.86;99688.44;5015868;27;102632;-61
2021/10/27 06:23:09;;;;;;;9.47;8.60;;;;;;;8.72;89.36;99681.91;5020484;27;104561;-62
2021/10/27 06:25:37;;;;;;;9.70;8.73;;;;;;;8.61;89.55;99684.22;5020354;27;104064;-61
2021/10/27 06:28:09;;;;;;;12.23;10.97;;;;;;;7.99;92.50;99684.53;5021473;27;103354;-61
2021/10/27 06:30:46;;;;;;;9.98;9.00;;;;;;;8.60;90.16;99677.22;5028187;27;102768;-62
2021/10/27 06:33:31;;;;;;;10.17;9.03;;;;;;;8.73;89.17;99688.00;5022698;27;102862;-61
2021/10/27 06:36:03;;;;;;;10.50;9.50;;;;;;;8.44;89.18;99691.22;5018356;27;104353;-61
2021/10/27 06:46:45;;;;;;;9.35;8.35;;;;;;;8.56;89.69;99694.09;5025907;27;103772;-61
2021/10/27 06:49:14;;;;;;;10.05;9.05;;;;;;;8.30;90.25;99699.78;5025068;27;102997;-61
2021/10/27 06:51:43;;;;;;;9.43;8.45;;;;;;;8.37;90.70;99701.19;5019694;27;102687;-61
2021/10/27 06:54:11;;;;;;;9.37;8.57;;;;;;;8.45;90.62;99699.03;5020226;27;104068;-61
2021/10/27 06:56:39;;;;;;;8.10;7.35;;;;;;;8.88;87.83;99696.94;5019309;27;103973;-61
2021/10/27 06:59:11;;;;;;;9.13;8.05;;;;;;;8.89;87.10;99699.50;5023398;27;102642;-61
2021/10/27 07:15:43;;;;;;;10.10;9.10;;;;;;;9.47;85.78;99713.22;5029117;27;102775;-61
2021/10/27 07:18:11;;;;;;;9.25;8.32;;;;;;;9.59;85.22;99709.94;5020192;27;103222;-61
2021/10/27 07:20:40;;;;;;;9.98;8.98;;;;;;;9.23;86.56;99725.03;5021071;27;103241;-62
2021/10/27 07:23:10;;;;;;;10.32;9.02;;;;;;;9.29;86.79;99724.72;5019217;27;102957;-61
2021/10/27 07:25:39;;;;;;;10.40;9.35;;;;;;;9.20;87.07;99722.53;5023310;27;103787;-62
2021/10/27 07:28:08;;;;;;;10.65;9.55;;;;;;;9.28;86.65;99728.28;5020760;27;103164;-62
2021/10/27 07:30:41;;;;;;;9.45;8.55;;;;;;;9.49;86.15;99732.44;5022987;27;103228;-62
2021/10/27 07:33:10;;;;;;;10.07;9.03;;;;;;;9.53;86.33;99726.09;5028122;27;102656;-61
2021/10/27 07:35:43;;;;;;;10.45;9.45;;;;;;;9.45;85.35;99732.69;5017426;27;102811;-62
2021/10/27 07:41:05;;;;;;;10.10;9.10;;;;;;;10.33;82.65;99720.94;5010685;27;103390;-61
2021/10/27 07:43:37;;;;;;;10.25;8.73;;;;;;;10.85;81.00;99734.69;4999126;28;102878;-61
2021/10/27 07:46:06;;;;;;;10.07;9.07;;;;;;;10.81;79.09;99728.72;4996938;27;103240;-62
2021/10/27 07:48:35;;;;;;;9.85;8.82;;;;;;;11.16;81.18;99736.41;4997094;27;103307;-61
2021/10/27 07:51:03;;;;;;;10.55;9.55;;;;;;;11.44;77.83;99733.84;5005973;28;103465;-62
2021/10/27 07:53:33;;;;;;;9.93;8.93;;;;;;;11.79;76.92;99729.13;5004389;28;102666;-62
2021/10/27 07:56:01;;;;;;;11.27;10.10;;;;;;;11.00;78.59;99729.38;4999264;28;102742;-60
2021/10/27 07:58:33;;;;;;;9.45;8.55;;;;;;;11.55;77.89;99734.06;5003132;27;104466;-61
2021/10/27 08:01:01;;;;;;;10.07;9.18;;;;;;;11.00;78.50;99734.66;4997953;28;103272;-61
2021/10/27 08:03:30;;;;;;;10.00;9.07;;;;;;;11.30;77.56;99725.88;5011137;27;103096;-61
2021/10/27 08:06:04;;;;;;;9.30;8.30;;;;;;;11.63;76.90;99734.44;5001939;28;102794;-61
2021/10/27 08:08:33;;;;;;;8.98;8.10;;;;;;;11.64;76.62;99731.72;5000503;28;103287;-61
2021/10/27 08:11:04;;;;;;;9.43;8.50;;;;;;;12.08;75.94;99721.06;5001778;27;103400;-61
2021/10/27 08:13:32;;;;;;;8.40;7.63;;;;;;;12.80;73.77;99725.25;5006002;27;102927;-63
2021/10/27 08:16:00;;;;;;;8.68;7.80;;;;;;;12.99;71.94;99725.78;5002370;28;104323;-62
2021/10/27 08:18:28;;;;;;;10.30;9.10;;;;;;;12.12;73.99;99733.19;5003253;28;103213;-62
2021/10/27 08:20:57;;;;;;;9.68;8.73;;;;;;;12.32;74.10;99728.44;5010058;27;103322;-62
2021/10/27 08:23:31;;;;;;;11.27;9.73;;;;;;;12.14;74.57;99738.38;5007766;28;102712;-62
2021/10/27 08:26:05;;;;;;;9.38;8.48;;;;;;;12.48;73.80;99735.31;4997857;28;104661;-62
2021/10/27 08:28:37;;;;;;;10.50;9.60;;;;;;;12.03;75.33;99739.06;4997393;28;103275;-63
2021/10/27 08:31:09;;;;;;;9.10;8.20;;;;;;;12.82;73.43;99734.00;5007196;28;103696;-62
2021/10/27 08:33:48;;;;;;;9.73;7.87;;;;;;;12.27;74.48;99735.84;5010158;28;102940;-62
2021/10/27 08:36:16;;;;;;;7.83;7.03;;;;;;;11.96;76.29;99729.78;4999911;27;103331;-63
2021/10/27 08:38:45;;;;;;;8.67;7.67;;;;;;;12.46;75.34;99729.25;5005767;28;103821;-63
2021/10/27 08:41:35;;;;;;;11.03;8.83;;;;;;;11.88;76.20;99734.69;5025282;27;104108;-63
2021/10/27 08:44:06;;;;;;;9.77;8.27;;;;;;;12.18;75.87;99737.25;5019397;27;102684;-62
2021/10/27 08:46:35;;;;;;;8.83;7.73;;;;;;;12.85;73.58;99733.78;5045893;27;104119;-63
2021/10/27 08:49:05;;;;;;;9.00;7.97;;;;;;;13.05;72.47;99730.66;5030874;27;103289;-63
2021/10/27 08:51:36;;;;;;;8.00;7.17;;;;;;;12.89;73.98;99729.97;5042714;27;103332;-63
2021/10/27 08:54:07;;;;;;;9.73;8.13;;;;;;;12.41;74.97;99726.03;5043814;27;102699;-63
2021/10/27 08:56:39;;;;;;;9.87;8.50;;;;;;;12.54;74.24;99729.63;5044226;27;103855;-64
2021/10/27 08:59:13;;;;;;;9.40;8.47;;;;;;;12.56;73.63;99719.78;5021560;27;103733;-64
2021/10/27 09:01:51;;;;;;;9.87;8.80;;;;;;;12.19;75.50;99726.56;5032873;27;103268;-64
2021/10/27 09:04:29;;;;;;;7.83;7.03;;;;;;;12.93;74.53;99728.84;5032076;27;102712;-62
2021/10/27 09:07:19;;;;;;;9.17;8.27;;;;;;;12.45;74.65;99724.91;5036721;27;103256;-63
2021/10/27 09:35:16;;;;;;;;;;;;;;;13.12;73.36;99697.50;5029964;27;102678;-62
2021/10/27 09:41:01;;;;;;;;;;;;;;;13.56;72.94;99691.81;5040131;27;102851;-62
2021/10/27 09:43:38;;;;;;;;;;;;;;;13.69;72.22;99687.38;5044346;27;103258;-62
2021/10/27 10:06:17;;;;;;;;;;;;;;;13.28;75.00;99666.31;5023821;27;103307;-64
2021/10/27 10:08:46;;;;;;;;;;;;;;;13.06;75.43;99662.53;5042987;27;103191;-64
2021/10/27 10:11:14;;;;;;;;;;;;;;;13.28;74.91;99663.66;5036731;27;102840;-62
2021/10/27 10:13:44;;;;;;;;;;;;;;;13.83;73.05;99655.41;5037898;27;104025;-62
2021/10/27 10:16:13;;;;;;;;;;;;;;;13.87;72.79;99656.00;5030291;27;103265;-62
2021/10/27 10:18:44;;;;;;;;;;;;;;;13.69;73.53;99657.31;5051672;27;103214;-62
2021/10/27 10:21:12;;;;;;;;;;;;;;;14.31;71.95;99655.50;5023383;27;103217;-62
2021/10/27 10:23:43;;;;;;;;;;;;;;;14.37;71.67;99650.59;5040879;27;103031;-62
2021/10/27 10:26:12;;;;;;;;;;;;;;;14.40;71.72;99655.69;5018971;27;105048;-62
2021/10/27 10:28:42;;;;;;;;;;;;;;;14.83;70.60;99657.84;5040019;27;103149;-62
2021/10/27 10:31:29;;;;;;;;;;;;;;;15.06;70.28;99654.31;5038969;27;102724;-62
2021/10/27 10:34:03;;;;;;;;;;;;;;;14.95;69.89;99649.81;5047064;27;103824;-62
2021/10/27 10:36:35;;;;;;;;;;;;;;;14.62;70.34;99654.16;5048875;27;104027;-62
2021/10/27 10:42:25;;;;;;;;;;;;;;;15.29;69.41;99645.44;5028935;27;102813;-62
2021/10/27 10:45:22;;;;;;;;;;;;;;;15.07;69.62;99656.03;5050661;27;102768;-62
2021/10/27 11:24:46;;;;;;;;;;;;;;;16.79;62.38;99598.66;5043886;27;103222;-64
2021/10/27 11:27:26;;;;;;;;;;;;;;;17.15;61.58;99589.41;5042087;27;102635;-64
2021/10/27 11:38:23;;;;;;;;;;;;;;;17.27;60.19;99573.16;5041550;27;102603;-64
2021/10/27 11:40:58;;;;;;;;;;;;;;;17.62;59.11;99572.81;5043938;27;103699;-64
2021/10/27 11:43:32;;;;;;;;;;;;;;;17.84;58.80;99564.59;5039553;27;104115;-64
2021/10/27 11:46:09;;;;;;;;;;;;;;;18.38;57.29;99560.63;5041623;27;103164;-64
2021/10/27 11:48:57;;;;;;;;;;;;;;;17.92;58.18;99562.09;5026543;27;102767;-64
2021/10/27 11:51:25;;;;;;;;;;;;;;;17.70;57.65;99554.28;5044386;27;103217;-64
2021/10/27 11:53:53;;;;;;;;;;;;;;;17.49;56.56;99549.94;5043634;27;103238;-64
2021/10/27 11:56:23;;;;;;;;;;;;;;;17.78;55.96;99551.75;5019764;27;104086;-64
2021/10/27 11:58:53;;;;;;;;;;;;;;;17.36;55.83;99548.31;5025203;27;102702;-64
2021/10/27 12:01:23;;;;;;;;;;;;;;;17.63;54.80;99545.09;5047239;27;104040;-64
2021/10/27 12:03:52;;;;;;;;;;;;;;;18.00;56.06;99547.16;5043643;27;103210;-64
2021/10/27 12:06:31;;;;;;;;;;;;;;;18.21;54.53;99537.22;5023819;27;103145;-64
2021/10/27 12:12:09;;;;;;;;;;;;;;;18.54;53.25;99534.19;5039462;27;102986;-64
2021/10/27 12:14:55;;;;;;;;;;;;;;;18.91;52.96;99532.47;5039970;27;104271;-64
2021/10/27 12:17:33;;;;;;;;;;;;;;;18.58;53.19;99530.25;5040851;27;103217;-64
2021/10/27 12:20:01;;;;;;;;;;;;;;;18.59;52.79;99520.38;5008450;27;103788;-64
2021/10/27 12:22:28;;;;;;;;;;;;;;;18.00;53.47;99517.75;5015985;27;104211;-64
2021/10/27 12:24:58;;;;;;;;;;;;;;;18.02;54.46;99507.78;5042269;27;103215;-64
2021/10/27 12:27:32;;;;;;;;;;;;;;;18.30;53.95;99509.66;5022942;27;103144;-64
2021/10/27 12:30:01;;;;;;;;;;;;;;;18.08;53.63;99505.38;5041357;27;102657;-64
2021/10/27 12:32:29;;;;;;;;;;;;;;;18.06;54.85;99502.03;5025143;27;102784;-64
2021/10/27 12:35:06;;;;;;;;;;;;;;;17.14;57.11;99496.91;5046115;27;103203;-64
2021/10/27 12:37:37;;;;;;;;;;;;;;;17.90;56.14;99486.53;5042606;27;103166;-64
2021/10/27 12:40:10;;;;;;;;;;;;;;;18.27;54.55;99485.88;5036461;27;103118;-64
2021/10/27 12:42:40;;;;;;;;;;;;;;;17.99;53.94;99479.50;5040255;27;102778;-64
2021/10/27 12:45:08;;;;;;;;;;;;;;;18.02;54.74;99478.38;5043709;27;103153;-64
2021/10/27 12:47:39;;;;;;;;;;;;;;;18.28;55.24;99476.84;5037432;27;103112;-65
2021/10/27 12:50:09;;;;;;;;;;;;;;;18.31;54.64;99473.88;5054699;27;102976;-66
2021/10/27 12:52:41;;;;;;;;;;;;;;;18.42;54.41;99476.41;5039377;27;102616;-67
2021/10/27 12:55:13;;;;;;;;;;;;;;;18.88;52.88;99468.50;5030376;27;103139;-67
2021/10/27 12:57:49;;;;;;;;;;;;;;;18.74;53.18;99460.91;5052514;27;103123;-67
2021/10/27 13:00:20;;;;;;;;;;;;;;;18.45;53.69;99466.28;5031487;27;102974;-67
2021/10/27 13:03:03;;;;;;;;;;;;;;;18.36;53.79;99466.28;5054472;27;102863;-67
2021/10/27 13:05:35;;;;;;;;;;;;;;;18.45;54.81;99460.91;5050141;27;103769;-67
2021/10/27 13:08:19;;;;;;;;;;;;;;;19.03;53.65;99456.31;5020821;27;103112;-66
2021/10/27 13:10:50;;;;;;;;;;;;;;;19.00;53.70;99451.25;5037136;27;103048;-66
2021/10/27 13:13:29;;;;;;;;;;;;;;;19.04;52.45;99446.44;5018650;27;103692;-66
2021/10/27 13:16:09;;;;;;;;;;;;;;;18.93;53.19;99447.47;5037227;27;103398;-66
2021/10/27 13:21:46;;;;;;;;;;;;;;;18.87;53.22;99440.03;5004639;27;103283;-65
2021/10/27 13:29:53;;;;;;;;;;;;;;;19.14;53.21;99441.06;5041971;27;103847;-66
2021/10/27 13:32:23;;;;;;;;;;;;;;;18.55;53.54;99444.91;5041054;27;102773;-65
2021/10/27 13:34:52;;;;;;;;;;;;;;;18.49;55.18;99443.66;5037417;27;102799;-65
2021/10/27 13:37:20;;;;;;;;;;;;;;;18.20;54.47;99441.94;5038067;27;103821;-66
2021/10/27 13:39:51;;;;;;;;;;;;;;;18.00;54.07;99438.41;5008654;27;109110;-66
2021/10/27 13:42:23;;;;;;;;;;;;;;;16.96;56.30;99450.44;5039000;27;103196;-66
2021/10/27 13:45:04;;;;;;;;;;;;;;;16.51;57.67;99442.72;5020673;27;102846;-66
2021/10/27 13:47:37;;;;;;;;;;;;;;;16.76;58.69;99438.81;5043133;27;103357;-65
2021/10/27 14:07:08;;;;;;;;;;;;;;;17.23;56.91;99432.03;4965918;27;104223;-65
2021/10/27 14:09:39;;;;;;;;;;;;;;;17.48;57.43;99428.88;5021207;27;103775;-64
2021/10/27 14:12:19;;;;;;;;;;;;;;;17.14;58.50;99433.69;5044150;27;103187;-65
2021/10/27 14:15:10;;;;;;;;;;;;;;;16.56;57.54;99431.69;5043486;27;102798;-65
2021/10/27 14:17:59;;;;;;;;;;;;;;;16.68;57.46;99431.47;5040760;27;102803;-65
2021/10/27 14:40:00;;;;;;;;;;;;;;;16.35;55.93;99409.47;5048436;27;102759;-66
2021/10/27 14:50:29;;;;;;;;;;;;;;;16.45;58.16;99400.56;5014851;27;102671;-64
2021/10/27 14:58:46;;;;;;;;;;;;;;;16.05;59.85;99396.91;5013541;27;102804;-63
2021/10/27 15:22:00;;;;;;;;;;;;;;;15.68;63.36;99358.31;5007039;27;102744;-64
2021/10/27 15:24:41;;;;;;;;;;;;;;;15.65;63.35;99360.28;5028352;27;102739;-64
2021/10/27 15:33:21;;;;;;;;;;;;;;;15.26;65.70;99358.19;5026198;27;102759;-64
2021/10/27 15:36:08;;;;;;;;;;;;;;;15.10;66.83;99360.38;5024294;27;102765;-65
2021/10/27 15:41:36;;;;;;;;;;;;;;;14.95;67.73;99349.16;5033059;27;103223;-64